createdAt,value
2023-01-21T00:00:43.096Z,608.00
2023-01-21T00:01:41.428Z,608.00
2023-01-21T00:02:41.414Z,610.00
2023-01-21T00:03:41.560Z,610.00
2023-01-21T06:05:42.174Z,554.00
2023-01-21T06:06:42.153Z,555.00
2023-01-21T06:07:42.149Z,554.00
2023-01-21T06:08:42.139Z,555.00
2023-01-21T06:09:42.129Z,555.00
2023-01-21T06:10:42.139Z,553.00
2023-01-21T06:11:42.123Z,552.00
2023-01-21T06:12:42.108Z,554.00
2023-01-21T06:13:42.099Z,554.00
2023-01-21T06:14:42.121Z,553.00
2023-01-21T06:15:42.141Z,550.00
2023-01-21T06:16:42.072Z,551.00
2023-01-21T06:17:42.065Z,549.00
2023-01-21T06:18:42.062Z,550.00
2023-01-21T06:19:42.061Z,550.00
2023-01-21T06:20:42.047Z,549.00
2023-01-21T06:21:42.036Z,548.00
2023-01-21T06:22:42.023Z,549.00
2023-01-21T06:23:42.025Z,550.00
2023-01-21T06:24:42.009Z,551.00
2023-01-21T06:25:42.006Z,548.00
2023-01-21T06:26:42.001Z,548.00
2023-01-21T06:27:42.000Z,549.00
2023-01-21T06:28:41.974Z,549.00
2023-01-21T06:29:41.973Z,549.00
2023-01-21T06:30:41.985Z,549.00
2023-01-21T06:31:42.068Z,548.00
2023-01-21T06:32:41.958Z,549.00
2023-01-21T06:33:41.937Z,549.00
2023-01-21T06:34:41.927Z,549.00
2023-01-21T06:35:41.949Z,550.00
2023-01-21T06:36:41.908Z,551.00
2023-01-21T06:37:41.916Z,552.00
2023-01-21T06:38:41.893Z,553.00
2023-01-21T06:39:41.885Z,557.00
2023-01-21T06:40:41.882Z,555.00
2023-01-21T06:41:41.880Z,552.00
2023-01-21T06:42:41.877Z,552.00
2023-01-21T06:43:41.856Z,551.00
2023-01-21T06:44:41.844Z,551.00
2023-01-21T06:45:41.840Z,550.00
2023-01-21T06:46:46.002Z,548.00
2023-01-21T06:47:41.822Z,546.00
2023-01-21T06:48:41.824Z,548.00
2023-01-21T06:49:41.804Z,546.00
2023-01-21T06:50:41.791Z,545.00
2023-01-21T06:51:41.788Z,544.00
2023-01-21T06:52:41.776Z,543.00
2023-01-21T06:53:41.783Z,541.00
2023-01-21T06:54:41.765Z,540.00
2023-01-21T06:55:41.754Z,542.00
2023-01-21T06:56:41.748Z,542.00
2023-01-21T06:57:41.733Z,542.00
2023-01-21T06:58:41.731Z,541.00
2023-01-21T06:59:41.736Z,536.00
2023-01-21T07:00:41.712Z,538.00
2023-01-21T07:01:41.822Z,539.00
2023-01-21T07:02:41.739Z,542.00
2023-01-21T07:03:41.685Z,543.00
2023-01-21T07:04:41.721Z,544.00
2023-01-21T07:05:41.672Z,545.00
2023-01-21T07:06:41.669Z,545.00
2023-01-21T07:07:41.659Z,543.00
2023-01-21T07:08:41.644Z,547.00
2023-01-21T07:09:41.635Z,547.00
2023-01-21T07:10:41.642Z,546.00
2023-01-21T07:11:41.616Z,545.00
2023-01-21T07:12:41.613Z,543.00
2023-01-21T07:13:41.597Z,542.00
2023-01-21T07:14:41.594Z,541.00
2023-01-21T07:15:41.632Z,540.00
2023-01-21T07:16:41.587Z,540.00
2023-01-21T07:17:41.565Z,539.00
2023-01-21T07:18:41.590Z,541.00
2023-01-21T07:19:41.555Z,541.00
2023-01-21T07:20:41.566Z,538.00
2023-01-21T07:21:41.555Z,535.00
2023-01-21T07:22:41.585Z,535.00
2023-01-21T07:23:41.515Z,536.00
2023-01-21T07:24:41.505Z,538.00
2023-01-21T07:25:41.515Z,541.00
2023-01-21T07:26:41.524Z,541.00
2023-01-21T07:27:41.483Z,542.00
2023-01-21T07:28:41.469Z,544.00
2023-01-21T07:29:41.466Z,543.00
2023-01-21T07:30:41.476Z,544.00
2023-01-21T07:31:41.611Z,545.00
2023-01-21T07:32:41.448Z,544.00
2023-01-21T07:33:41.431Z,542.00
2023-01-21T07:34:41.440Z,540.00
2023-01-21T07:35:41.413Z,543.00
2023-01-21T07:36:41.403Z,545.00
2023-01-21T07:37:41.398Z,545.00
2023-01-21T07:38:41.398Z,545.00
2023-01-21T07:39:41.384Z,544.00
2023-01-21T07:40:41.373Z,542.00
2023-01-21T07:41:41.364Z,541.00
2023-01-21T07:42:41.361Z,541.00
2023-01-21T07:43:41.350Z,540.00
2023-01-21T07:44:41.338Z,540.00
2023-01-21T07:45:41.333Z,541.00
2023-01-21T07:46:41.386Z,542.00
2023-01-21T07:47:41.324Z,544.00
2023-01-21T07:48:41.310Z,542.00
2023-01-21T07:49:41.300Z,542.00
2023-01-21T07:50:41.314Z,543.00
2023-01-21T07:51:41.283Z,545.00
2023-01-21T07:52:41.273Z,544.00
2023-01-21T07:53:41.266Z,542.00
2023-01-21T07:54:41.268Z,544.00
2023-01-21T07:55:41.245Z,544.00
2023-01-21T07:56:41.245Z,545.00
2023-01-21T07:57:41.234Z,546.00
2023-01-21T07:58:41.225Z,544.00
2023-01-21T07:59:41.220Z,544.00
2023-01-21T08:00:41.220Z,547.00
2023-01-21T08:01:41.371Z,548.00
2023-01-21T08:02:41.307Z,547.00
2023-01-21T08:03:41.187Z,548.00
2023-01-21T08:04:41.172Z,549.00
2023-01-21T08:05:41.168Z,547.00
2023-01-21T08:06:41.296Z,543.00
2023-01-21T08:07:41.153Z,540.00
2023-01-21T08:08:41.986Z,539.00
2023-01-21T08:09:41.143Z,538.00
2023-01-21T08:10:41.127Z,538.00
2023-01-21T08:11:41.122Z,538.00
2023-01-21T08:12:41.115Z,537.00
2023-01-21T08:13:41.108Z,537.00
2023-01-21T08:14:41.096Z,536.00
2023-01-21T08:15:41.101Z,537.00
2023-01-21T08:16:41.095Z,538.00
2023-01-21T08:17:41.074Z,535.00
2023-01-21T08:18:41.060Z,534.00
2023-01-21T08:19:41.050Z,534.00
2023-01-21T08:20:41.043Z,534.00
2023-01-21T08:21:41.041Z,536.00
2023-01-21T08:22:41.068Z,536.00
2023-01-21T08:23:41.037Z,534.00
2023-01-21T08:24:41.019Z,537.00
2023-01-21T08:25:41.002Z,538.00
2023-01-21T08:26:41.026Z,537.00
2023-01-21T08:27:41.004Z,535.00
2023-01-21T08:28:40.987Z,536.00
2023-01-21T08:29:40.972Z,536.00
2023-01-21T08:30:41.023Z,535.00
2023-01-21T08:31:41.058Z,534.00
2023-01-21T08:32:40.964Z,534.00
2023-01-21T08:33:40.952Z,534.00
2023-01-21T08:34:40.928Z,535.00
2023-01-21T08:35:40.929Z,535.00
2023-01-21T08:36:40.919Z,536.00
2023-01-21T08:37:40.931Z,534.00
2023-01-21T08:38:40.937Z,533.00
2023-01-21T08:39:40.882Z,530.00
2023-01-21T08:40:40.900Z,528.00
2023-01-21T08:41:40.892Z,530.00
2023-01-21T08:42:40.873Z,531.00
2023-01-21T08:43:40.873Z,532.00
2023-01-21T08:44:40.849Z,532.00
2023-01-21T08:45:40.844Z,530.00
2023-01-21T08:46:40.854Z,528.00
2023-01-21T08:47:40.833Z,528.00
2023-01-21T08:48:40.825Z,526.00
2023-01-21T08:49:40.832Z,525.00
2023-01-21T08:50:40.797Z,527.00
2023-01-21T08:51:40.791Z,529.00
2023-01-21T08:52:40.780Z,531.00
2023-01-21T08:53:40.787Z,529.00
2023-01-21T08:54:40.784Z,528.00
2023-01-21T08:55:40.764Z,529.00
2023-01-21T08:56:40.744Z,532.00
2023-01-21T08:57:40.732Z,533.00
2023-01-21T08:58:40.732Z,535.00
2023-01-21T08:59:40.729Z,536.00
2023-01-21T09:00:40.763Z,534.00
2023-01-21T09:01:40.700Z,532.00
2023-01-21T09:02:40.701Z,528.00
2023-01-21T09:03:40.691Z,527.00
2023-01-21T09:04:40.723Z,526.00
2023-01-21T09:05:40.677Z,527.00
2023-01-21T09:06:40.667Z,529.00
2023-01-21T09:07:40.654Z,532.00
2023-01-21T09:08:40.645Z,535.00
2023-01-21T09:09:40.643Z,534.00
2023-01-21T09:10:40.652Z,532.00
2023-01-21T09:11:40.626Z,534.00
2023-01-21T09:12:40.613Z,533.00
2023-01-21T09:13:40.600Z,533.00
2023-01-21T09:14:40.656Z,532.00
2023-01-21T09:15:40.595Z,530.00
2023-01-21T09:16:40.645Z,530.00
2023-01-21T09:17:40.570Z,529.00
2023-01-21T09:18:40.557Z,528.00
2023-01-21T09:19:40.556Z,530.00
2023-01-21T09:20:40.545Z,530.00
2023-01-21T09:21:40.538Z,526.00
2023-01-21T09:22:40.539Z,525.00
2023-01-21T09:23:40.526Z,527.00
2023-01-21T09:24:40.531Z,527.00
2023-01-21T09:25:40.501Z,525.00
2023-01-21T09:26:40.535Z,524.00
2023-01-21T09:27:40.484Z,524.00
2023-01-21T09:28:40.482Z,523.00
2023-01-21T09:29:40.527Z,522.00
2023-01-21T09:30:40.516Z,523.00
2023-01-21T09:31:40.530Z,523.00
2023-01-21T09:32:40.445Z,522.00
2023-01-21T09:33:40.439Z,523.00
2023-01-21T09:34:40.429Z,525.00
2023-01-21T09:35:40.415Z,525.00
2023-01-21T09:36:40.412Z,523.00
2023-01-21T09:37:40.401Z,523.00
2023-01-21T09:38:40.392Z,522.00
2023-01-21T09:39:40.394Z,522.00
2023-01-21T09:40:40.372Z,522.00
2023-01-21T09:41:40.363Z,524.00
2023-01-21T09:42:40.384Z,523.00
2023-01-21T09:43:40.380Z,523.00
2023-01-21T09:44:40.354Z,525.00
2023-01-21T09:45:40.354Z,522.00
2023-01-21T09:46:40.324Z,521.00
2023-01-21T09:47:40.328Z,523.00
2023-01-21T09:48:40.306Z,525.00
2023-01-21T09:49:40.332Z,525.00
2023-01-21T09:50:40.297Z,527.00
2023-01-21T09:51:40.280Z,526.00
2023-01-21T09:52:40.286Z,525.00
2023-01-21T09:53:40.264Z,526.00
2023-01-21T09:54:40.274Z,526.00
2023-01-21T09:55:40.263Z,525.00
2023-01-21T09:56:40.237Z,526.00
2023-01-21T09:57:40.227Z,526.00
2023-01-21T09:58:40.244Z,525.00
2023-01-21T09:59:40.215Z,525.00
2023-01-21T10:00:40.205Z,528.00
2023-01-21T10:01:40.201Z,526.00
2023-01-21T10:02:40.190Z,528.00
2023-01-21T10:03:40.181Z,525.00
2023-01-21T10:04:40.235Z,527.00
2023-01-21T10:05:40.166Z,526.00
2023-01-21T10:06:40.156Z,525.00
2023-01-21T10:07:40.146Z,525.00
2023-01-21T10:08:40.140Z,527.00
2023-01-21T10:09:40.139Z,527.00
2023-01-21T10:10:40.124Z,527.00
2023-01-21T10:11:40.112Z,526.00
2023-01-21T10:12:40.107Z,526.00
2023-01-21T10:13:40.096Z,528.00
2023-01-21T10:14:40.117Z,528.00
2023-01-21T10:15:40.080Z,526.00
2023-01-21T10:16:40.118Z,528.00
2023-01-21T10:17:40.071Z,528.00
2023-01-21T10:18:40.051Z,527.00
2023-01-21T10:19:40.047Z,527.00
2023-01-21T10:20:40.039Z,527.00
2023-01-21T10:21:40.030Z,527.00
2023-01-21T10:22:40.030Z,528.00
2023-01-21T10:23:42.237Z,526.00
2023-01-21T10:24:40.006Z,524.00
2023-01-21T10:25:40.003Z,524.00
2023-01-21T10:26:39.999Z,525.00
2023-01-21T10:27:39.982Z,526.00
2023-01-21T10:28:39.976Z,526.00
2023-01-21T10:29:39.962Z,525.00
2023-01-21T10:30:40.069Z,525.00
2023-01-21T10:31:40.108Z,523.00
2023-01-21T10:32:39.940Z,522.00
2023-01-21T10:33:39.925Z,522.00
2023-01-21T10:34:39.924Z,522.00
2023-01-21T10:35:39.912Z,523.00
2023-01-21T10:36:39.910Z,521.00
2023-01-21T10:37:39.907Z,520.00
2023-01-21T10:38:39.884Z,520.00
2023-01-21T10:39:39.886Z,520.00
2023-01-21T10:40:39.875Z,520.00
2023-01-21T10:41:39.857Z,521.00
2023-01-21T10:42:39.852Z,519.00
2023-01-21T10:43:39.852Z,520.00
2023-01-21T10:44:39.833Z,525.00
2023-01-21T10:45:39.838Z,526.00
2023-01-21T10:46:39.842Z,526.00
2023-01-21T10:47:39.815Z,524.00
2023-01-21T10:48:39.802Z,524.00
2023-01-21T10:49:39.796Z,523.00
2023-01-21T10:50:39.802Z,524.00
2023-01-21T10:51:39.780Z,526.00
2023-01-21T10:52:39.772Z,525.00
2023-01-21T10:53:39.766Z,524.00
2023-01-21T10:54:39.762Z,522.00
2023-01-21T10:55:39.753Z,523.00
2023-01-21T10:56:39.761Z,526.00
2023-01-21T10:57:39.730Z,526.00
2023-01-21T10:58:39.720Z,526.00
2023-01-21T10:59:39.716Z,524.00
2023-01-21T11:00:39.706Z,524.00
2023-01-21T11:01:39.787Z,525.00
2023-01-21T11:02:39.728Z,525.00
2023-01-21T11:03:39.681Z,526.00
2023-01-21T11:04:39.666Z,526.00
2023-01-21T11:05:39.669Z,525.00
2023-01-21T11:06:39.654Z,525.00
2023-01-21T11:07:39.650Z,525.00
2023-01-21T11:08:39.685Z,524.00
2023-01-21T11:09:39.642Z,522.00
2023-01-21T11:10:39.618Z,521.00
2023-01-21T11:11:39.609Z,522.00
2023-01-21T11:12:39.607Z,523.00
2023-01-21T11:13:39.599Z,523.00
2023-01-21T11:14:39.586Z,526.00
2023-01-21T11:15:39.611Z,527.00
2023-01-21T11:16:39.589Z,526.00
2023-01-21T11:17:39.562Z,528.00
2023-01-21T11:18:39.590Z,526.00
2023-01-21T11:19:39.545Z,529.00
2023-01-21T11:20:39.583Z,531.00
2023-01-21T11:21:39.534Z,531.00
2023-01-21T11:22:39.531Z,529.00
2023-01-21T11:23:39.519Z,527.00
2023-01-21T11:24:39.503Z,529.00
2023-01-21T11:25:39.493Z,528.00
2023-01-21T11:26:39.501Z,528.00
2023-01-21T11:27:39.477Z,530.00
2023-01-21T11:28:39.471Z,530.00
2023-01-21T11:29:39.481Z,532.00
2023-01-21T11:30:50.551Z,530.00
2023-01-21T11:31:39.551Z,530.00
2023-01-21T11:32:39.437Z,531.00
2023-01-21T11:33:39.453Z,530.00
2023-01-21T11:34:39.457Z,532.00
2023-01-21T11:35:39.420Z,530.00
2023-01-21T11:36:39.407Z,529.00
2023-01-21T11:37:39.408Z,528.00
2023-01-21T11:38:39.398Z,527.00
2023-01-21T11:39:39.386Z,526.00
2023-01-21T11:40:39.376Z,523.00
2023-01-21T11:41:39.363Z,525.00
2023-01-21T11:42:39.361Z,524.00
2023-01-21T11:43:39.348Z,524.00
2023-01-21T11:44:39.350Z,524.00
2023-01-21T11:45:39.347Z,526.00
2023-01-21T11:46:39.331Z,525.00
2023-01-21T11:47:39.327Z,523.00
2023-01-21T11:48:39.305Z,523.00
2023-01-21T11:49:39.297Z,523.00
2023-01-21T11:50:39.321Z,522.00
2023-01-21T11:51:39.294Z,524.00
2023-01-21T11:52:39.290Z,525.00
2023-01-21T11:53:39.283Z,526.00
2023-01-21T11:54:39.262Z,527.00
2023-01-21T11:55:39.247Z,527.00
2023-01-21T11:56:39.251Z,529.00
2023-01-21T11:57:39.233Z,528.00
2023-01-21T11:58:39.227Z,524.00
2023-01-21T11:59:39.216Z,521.00
2023-01-21T12:00:39.218Z,521.00
2023-01-21T12:01:39.200Z,523.00
2023-01-21T12:02:39.254Z,524.00
2023-01-21T12:03:39.200Z,522.00
2023-01-21T12:04:39.177Z,522.00
2023-01-21T12:05:39.181Z,522.00
2023-01-21T12:06:39.194Z,521.00
2023-01-21T12:07:39.168Z,522.00
2023-01-21T12:08:39.147Z,523.00
2023-01-21T12:09:39.135Z,524.00
2023-01-21T12:10:39.124Z,523.00
2023-01-21T12:11:39.120Z,523.00
2023-01-21T12:12:39.122Z,523.00
2023-01-21T12:13:39.115Z,524.00
2023-01-21T12:14:39.101Z,522.00
2023-01-21T12:15:39.182Z,523.00
2023-01-21T12:16:39.078Z,521.00
2023-01-21T12:17:40.161Z,523.00
2023-01-21T12:21:39.113Z,521.00
2023-01-21T13:29:39.115Z,523.00
2023-01-21T14:11:39.131Z,513.00
